sensor_id;sensor_type;location;lat;lon;timestamp;P1;durP1;ratioP1;P2;durP2;ratioP2
52956;SDS011;38819;42.692;23.342;2023-08-08T00:01:57;2.15;;;0.90;;
52956;SDS011;38819;42.692;23.342;2023-08-08T00:04:22;0.50;;;0.50;;
52956;SDS011;38819;42.692;23.342;2023-08-08T00:06:48;0.73;;;0.73;;
52956;SDS011;38819;42.692;23.342;2023-08-08T00:09:13;0.98;;;0.80;;
52956;SDS011;38819;42.692;23.342;2023-08-08T00:11:39;0.70;;;0.70;;
52956;SDS011;38819;42.692;23.342;2023-08-08T00:14:05;0.70;;;0.70;;
52956;SDS011;38819;42.692;23.342;2023-08-08T00:16:31;1.30;;;0.75;;
52956;SDS011;38819;42.692;23.342;2023-08-08T00:18:57;0.60;;;0.60;;
52956;SDS011;38819;42.692;23.342;2023-08-08T00:21:22;0.60;;;0.60;;
52956;SDS011;38819;42.692;23.342;2023-08-08T00:23:47;1.63;;;0.88;;
52956;SDS011;38819;42.692;23.342;2023-08-08T00:26:13;1.13;;;0.77;;
52956;SDS011;38819;42.692;23.342;2023-08-08T00:28:38;1.60;;;0.82;;
52956;SDS011;38819;42.692;23.342;2023-08-08T00:31:04;1.08;;;0.98;;
52956;SDS011;38819;42.692;23.342;2023-08-08T00:33:29;2.28;;;0.80;;
52956;SDS011;38819;42.692;23.342;2023-08-08T00:35:54;0.60;;;0.60;;
52956;SDS011;38819;42.692;23.342;2023-08-08T00:38:20;1.85;;;0.60;;
52956;SDS011;38819;42.692;23.342;2023-08-08T00:40:46;2.25;;;1.05;;
52956;SDS011;38819;42.692;23.342;2023-08-08T00:43:11;0.77;;;0.77;;
52956;SDS011;38819;42.692;23.342;2023-08-08T00:45:37;0.98;;;0.77;;
52956;SDS011;38819;42.692;23.342;2023-08-08T00:48:03;1.85;;;0.80;;
52956;SDS011;38819;42.692;23.342;2023-08-08T00:50:29;1.40;;;1.10;;
52956;SDS011;38819;42.692;23.342;2023-08-08T00:52:54;1.85;;;1.20;;
52956;SDS011;38819;42.692;23.342;2023-08-08T00:55:20;1.27;;;0.88;;
52956;SDS011;38819;42.692;23.342;2023-08-08T00:57:46;1.15;;;1.02;;
52956;SDS011;38819;42.692;23.342;2023-08-08T01:00:12;0.90;;;0.90;;
52956;SDS011;38819;42.692;23.342;2023-08-08T01:02:37;0.85;;;0.70;;
52956;SDS011;38819;42.692;23.342;2023-08-08T01:05:03;0.80;;;0.80;;
52956;SDS011;38819;42.692;23.342;2023-08-08T01:07:30;1.27;;;0.83;;
52956;SDS011;38819;42.692;23.342;2023-08-08T01:10:08;1.55;;;0.90;;
52956;SDS011;38819;42.692;23.342;2023-08-08T01:12:39;2.78;;;0.68;;
52956;SDS011;38819;42.692;23.342;2023-08-08T01:15:08;1.75;;;0.60;;
52956;SDS011;38819;42.692;23.342;2023-08-08T01:17:34;2.33;;;0.85;;
52956;SDS011;38819;42.692;23.342;2023-08-08T01:22:32;0.90;;;0.90;;
52956;SDS011;38819;42.692;23.342;2023-08-08T01:25:02;0.80;;;0.80;;
52956;SDS011;38819;42.692;23.342;2023-08-08T01:27:30;1.45;;;0.90;;
52956;SDS011;38819;42.692;23.342;2023-08-08T01:29:55;1.10;;;0.85;;
52956;SDS011;38819;42.692;23.342;2023-08-08T01:32:21;0.98;;;0.70;;
52956;SDS011;38819;42.692;23.342;2023-08-08T01:34:46;1.17;;;0.77;;
52956;SDS011;38819;42.692;23.342;2023-08-08T01:37:27;3.05;;;0.50;;
52956;SDS011;38819;42.692;23.342;2023-08-08T01:39:57;2.65;;;0.65;;
52956;SDS011;38819;42.692;23.342;2023-08-08T01:42:25;2.50;;;1.05;;
52956;SDS011;38819;42.692;23.342;2023-08-08T01:44:51;0.93;;;0.70;;
52956;SDS011;38819;42.692;23.342;2023-08-08T01:49:43;2.13;;;1.00;;
52956;SDS011;38819;42.692;23.342;2023-08-08T01:52:09;4.40;;;0.80;;
52956;SDS011;38819;42.692;23.342;2023-08-08T01:54:34;2.15;;;0.80;;
52956;SDS011;38819;42.692;23.342;2023-08-08T01:57:00;1.55;;;1.00;;
52956;SDS011;38819;42.692;23.342;2023-08-08T01:59:25;0.80;;;0.80;;
52956;SDS011;38819;42.692;23.342;2023-08-08T02:01:50;1.00;;;1.00;;
52956;SDS011;38819;42.692;23.342;2023-08-08T02:04:16;0.75;;;0.75;;
52956;SDS011;38819;42.692;23.342;2023-08-08T02:06:41;0.95;;;0.65;;
52956;SDS011;38819;42.692;23.342;2023-08-08T02:09:07;1.10;;;1.00;;
52956;SDS011;38819;42.692;23.342;2023-08-08T02:11:32;1.05;;;1.05;;
52956;SDS011;38819;42.692;23.342;2023-08-08T02:13:58;1.23;;;1.10;;
52956;SDS011;38819;42.692;23.342;2023-08-08T02:16:23;1.30;;;0.90;;
52956;SDS011;38819;42.692;23.342;2023-08-08T02:18:48;1.60;;;1.38;;
52956;SDS011;38819;42.692;23.342;2023-08-08T02:21:14;0.88;;;0.88;;
52956;SDS011;38819;42.692;23.342;2023-08-08T02:23:40;1.27;;;1.15;;
52956;SDS011;38819;42.692;23.342;2023-08-08T02:26:05;1.25;;;1.15;;
52956;SDS011;38819;42.692;23.342;2023-08-08T02:28:31;4.22;;;0.95;;
52956;SDS011;38819;42.692;23.342;2023-08-08T02:30:56;0.95;;;0.82;;
52956;SDS011;38819;42.692;23.342;2023-08-08T02:33:21;4.30;;;1.13;;
52956;SDS011;38819;42.692;23.342;2023-08-08T02:35:47;4.43;;;1.05;;
52956;SDS011;38819;42.692;23.342;2023-08-08T02:38:12;1.48;;;0.95;;
52956;SDS011;38819;42.692;23.342;2023-08-08T02:40:38;0.90;;;0.90;;
52956;SDS011;38819;42.692;23.342;2023-08-08T02:43:04;1.30;;;1.20;;
52956;SDS011;38819;42.692;23.342;2023-08-08T02:45:29;2.50;;;1.10;;
52956;SDS011;38819;42.692;23.342;2023-08-08T02:47:55;1.20;;;1.10;;
52956;SDS011;38819;42.692;23.342;2023-08-08T02:50:20;3.78;;;1.00;;
52956;SDS011;38819;42.692;23.342;2023-08-08T02:52:46;1.27;;;1.08;;
52956;SDS011;38819;42.692;23.342;2023-08-08T02:55:11;2.75;;;1.15;;
52956;SDS011;38819;42.692;23.342;2023-08-08T02:57:36;1.27;;;1.17;;
52956;SDS011;38819;42.692;23.342;2023-08-08T03:00:02;1.85;;;1.05;;
52956;SDS011;38819;42.692;23.342;2023-08-08T03:02:29;1.20;;;1.20;;
52956;SDS011;38819;42.692;23.342;2023-08-08T03:04:54;1.20;;;1.20;;
52956;SDS011;38819;42.692;23.342;2023-08-08T03:07:20;1.42;;;1.25;;
52956;SDS011;38819;42.692;23.342;2023-08-08T03:09:45;2.40;;;1.60;;
52956;SDS011;38819;42.692;23.342;2023-08-08T03:12:11;1.30;;;1.20;;
52956;SDS011;38819;42.692;23.342;2023-08-08T03:14:36;1.40;;;1.27;;
52956;SDS011;38819;42.692;23.342;2023-08-08T03:17:03;1.45;;;1.35;;
52956;SDS011;38819;42.692;23.342;2023-08-08T03:19:28;3.40;;;1.40;;
52956;SDS011;38819;42.692;23.342;2023-08-08T03:21:54;2.67;;;1.38;;
52956;SDS011;38819;42.692;23.342;2023-08-08T03:24:19;1.20;;;1.10;;
52956;SDS011;38819;42.692;23.342;2023-08-08T03:26:44;1.63;;;1.33;;
52956;SDS011;38819;42.692;23.342;2023-08-08T03:29:10;3.30;;;1.75;;
52956;SDS011;38819;42.692;23.342;2023-08-08T03:31:36;2.67;;;1.60;;
52956;SDS011;38819;42.692;23.342;2023-08-08T03:34:02;3.13;;;1.35;;
52956;SDS011;38819;42.692;23.342;2023-08-08T03:36:27;3.38;;;1.70;;
52956;SDS011;38819;42.692;23.342;2023-08-08T03:38:52;5.20;;;1.90;;
52956;SDS011;38819;42.692;23.342;2023-08-08T03:41:18;2.50;;;1.65;;
52956;SDS011;38819;42.692;23.342;2023-08-08T03:43:44;2.05;;;1.63;;
52956;SDS011;38819;42.692;23.342;2023-08-08T03:46:09;1.75;;;1.65;;
52956;SDS011;38819;42.692;23.342;2023-08-08T03:48:36;3.58;;;1.58;;
52956;SDS011;38819;42.692;23.342;2023-08-08T03:51:02;2.00;;;1.90;;
52956;SDS011;38819;42.692;23.342;2023-08-08T03:53:28;4.22;;;1.95;;
52956;SDS011;38819;42.692;23.342;2023-08-08T03:55:53;2.08;;;1.90;;
52956;SDS011;38819;42.692;23.342;2023-08-08T03:58:19;4.25;;;1.90;;
52956;SDS011;38819;42.692;23.342;2023-08-08T04:00:44;1.77;;;1.65;;
52956;SDS011;38819;42.692;23.342;2023-08-08T04:03:14;3.58;;;1.98;;
52956;SDS011;38819;42.692;23.342;2023-08-08T04:05:41;4.47;;;2.65;;
52956;SDS011;38819;42.692;23.342;2023-08-08T04:08:11;4.38;;;1.90;;
52956;SDS011;38819;42.692;23.342;2023-08-08T04:10:36;1.75;;;1.65;;
52956;SDS011;38819;42.692;23.342;2023-08-08T04:13:02;4.03;;;2.10;;
52956;SDS011;38819;42.692;23.342;2023-08-08T04:15:27;2.13;;;2.03;;
52956;SDS011;38819;42.692;23.342;2023-08-08T04:17:53;2.45;;;2.25;;
52956;SDS011;38819;42.692;23.342;2023-08-08T04:20:18;2.28;;;2.10;;
52956;SDS011;38819;42.692;23.342;2023-08-08T04:22:44;2.03;;;1.92;;
52956;SDS011;38819;42.692;23.342;2023-08-08T04:25:09;2.85;;;2.17;;
52956;SDS011;38819;42.692;23.342;2023-08-08T04:27:34;3.13;;;2.30;;
52956;SDS011;38819;42.692;23.342;2023-08-08T04:30:00;2.42;;;2.25;;
52956;SDS011;38819;42.692;23.342;2023-08-08T04:32:26;4.13;;;2.70;;
52956;SDS011;38819;42.692;23.342;2023-08-08T04:34:51;4.32;;;2.88;;
52956;SDS011;38819;42.692;23.342;2023-08-08T04:37:16;2.60;;;2.40;;
52956;SDS011;38819;42.692;23.342;2023-08-08T04:39:42;2.42;;;2.22;;
52956;SDS011;38819;42.692;23.342;2023-08-08T04:42:07;2.38;;;2.28;;
52956;SDS011;38819;42.692;23.342;2023-08-08T04:44:33;4.85;;;2.22;;
52956;SDS011;38819;42.692;23.342;2023-08-08T04:46:58;2.85;;;2.65;;
52956;SDS011;38819;42.692;23.342;2023-08-08T04:49:23;3.15;;;2.85;;
52956;SDS011;38819;42.692;23.342;2023-08-08T04:51:49;3.38;;;2.67;;
52956;SDS011;38819;42.692;23.342;2023-08-08T04:54:14;2.80;;;2.60;;
52956;SDS011;38819;42.692;23.342;2023-08-08T04:56:39;3.60;;;2.00;;
52956;SDS011;38819;42.692;23.342;2023-08-08T04:59:05;3.42;;;2.15;;
52956;SDS011;38819;42.692;23.342;2023-08-08T05:01:30;3.55;;;2.40;;
52956;SDS011;38819;42.692;23.342;2023-08-08T05:03:56;2.85;;;2.20;;
52956;SDS011;38819;42.692;23.342;2023-08-08T05:06:21;2.88;;;2.67;;
52956;SDS011;38819;42.692;23.342;2023-08-08T05:08:48;2.63;;;2.40;;
52956;SDS011;38819;42.692;23.342;2023-08-08T05:11:15;2.92;;;2.30;;
52956;SDS011;38819;42.692;23.342;2023-08-08T05:13:40;2.78;;;2.33;;
52956;SDS011;38819;42.692;23.342;2023-08-08T05:16:07;3.97;;;2.80;;
52956;SDS011;38819;42.692;23.342;2023-08-08T05:18:33;2.20;;;2.00;;
52956;SDS011;38819;42.692;23.342;2023-08-08T05:20:58;6.65;;;2.47;;
52956;SDS011;38819;42.692;23.342;2023-08-08T05:23:24;2.28;;;2.10;;
52956;SDS011;38819;42.692;23.342;2023-08-08T05:25:49;4.75;;;2.42;;
52956;SDS011;38819;42.692;23.342;2023-08-08T05:28:14;5.30;;;2.13;;
52956;SDS011;38819;42.692;23.342;2023-08-08T05:30:40;3.53;;;2.22;;
52956;SDS011;38819;42.692;23.342;2023-08-08T05:33:05;6.35;;;2.08;;
52956;SDS011;38819;42.692;23.342;2023-08-08T05:35:31;2.55;;;2.35;;
52956;SDS011;38819;42.692;23.342;2023-08-08T05:37:57;2.42;;;2.13;;
52956;SDS011;38819;42.692;23.342;2023-08-08T05:40:22;6.25;;;3.97;;
52956;SDS011;38819;42.692;23.342;2023-08-08T05:42:47;2.67;;;2.45;;
52956;SDS011;38819;42.692;23.342;2023-08-08T05:45:13;3.78;;;1.83;;
52956;SDS011;38819;42.692;23.342;2023-08-08T05:47:38;4.28;;;1.80;;
52956;SDS011;38819;42.692;23.342;2023-08-08T05:50:04;3.42;;;2.20;;
52956;SDS011;38819;42.692;23.342;2023-08-08T05:52:30;2.75;;;1.67;;
52956;SDS011;38819;42.692;23.342;2023-08-08T05:54:56;2.72;;;1.98;;
52956;SDS011;38819;42.692;23.342;2023-08-08T05:57:24;4.57;;;2.17;;
52956;SDS011;38819;42.692;23.342;2023-08-08T05:59:49;2.08;;;1.98;;
52956;SDS011;38819;42.692;23.342;2023-08-08T06:02:15;2.08;;;1.98;;
52956;SDS011;38819;42.692;23.342;2023-08-08T06:04:40;2.70;;;2.03;;
52956;SDS011;38819;42.692;23.342;2023-08-08T06:07:06;2.08;;;1.98;;
52956;SDS011;38819;42.692;23.342;2023-08-08T06:09:31;5.03;;;2.15;;
52956;SDS011;38819;42.692;23.342;2023-08-08T06:11:57;2.63;;;2.42;;
52956;SDS011;38819;42.692;23.342;2023-08-08T06:14:23;2.83;;;2.10;;
52956;SDS011;38819;42.692;23.342;2023-08-08T06:16:48;7.00;;;2.97;;
52956;SDS011;38819;42.692;23.342;2023-08-08T06:19:13;3.33;;;2.17;;
52956;SDS011;38819;42.692;23.342;2023-08-08T06:21:40;6.57;;;2.40;;
52956;SDS011;38819;42.692;23.342;2023-08-08T06:24:06;4.20;;;2.22;;
52956;SDS011;38819;42.692;23.342;2023-08-08T06:26:32;2.55;;;2.28;;
52956;SDS011;38819;42.692;23.342;2023-08-08T06:28:57;2.42;;;2.33;;
52956;SDS011;38819;42.692;23.342;2023-08-08T06:31:22;3.03;;;2.00;;
52956;SDS011;38819;42.692;23.342;2023-08-08T06:33:48;3.80;;;2.03;;
52956;SDS011;38819;42.692;23.342;2023-08-08T06:36:13;3.30;;;2.00;;
52956;SDS011;38819;42.692;23.342;2023-08-08T06:38:39;10.25;;;2.92;;
52956;SDS011;38819;42.692;23.342;2023-08-08T06:41:04;10.57;;;2.65;;
52956;SDS011;38819;42.692;23.342;2023-08-08T06:43:30;4.40;;;2.88;;
52956;SDS011;38819;42.692;23.342;2023-08-08T06:45:56;2.47;;;2.28;;
52956;SDS011;38819;42.692;23.342;2023-08-08T06:48:21;4.07;;;2.35;;
52956;SDS011;38819;42.692;23.342;2023-08-08T06:50:48;2.60;;;2.40;;
52956;SDS011;38819;42.692;23.342;2023-08-08T06:53:14;3.05;;;1.90;;
52956;SDS011;38819;42.692;23.342;2023-08-08T06:55:40;1.92;;;1.83;;
52956;SDS011;38819;42.692;23.342;2023-08-08T06:58:06;3.38;;;2.05;;
52956;SDS011;38819;42.692;23.342;2023-08-08T07:00:31;2.40;;;2.20;;
52956;SDS011;38819;42.692;23.342;2023-08-08T07:02:56;5.75;;;2.15;;
52956;SDS011;38819;42.692;23.342;2023-08-08T07:05:22;3.80;;;1.38;;
52956;SDS011;38819;42.692;23.342;2023-08-08T07:07:49;2.45;;;1.70;;
52956;SDS011;38819;42.692;23.342;2023-08-08T07:10:15;4.45;;;1.50;;
52956;SDS011;38819;42.692;23.342;2023-08-08T07:12:40;1.73;;;1.63;;
52956;SDS011;38819;42.692;23.342;2023-08-08T07:15:07;1.88;;;1.77;;
52956;SDS011;38819;42.692;23.342;2023-08-08T07:17:33;3.67;;;1.77;;
52956;SDS011;38819;42.692;23.342;2023-08-08T07:19:59;2.90;;;1.60;;
52956;SDS011;38819;42.692;23.342;2023-08-08T07:22:25;5.32;;;1.80;;
52956;SDS011;38819;42.692;23.342;2023-08-08T07:24:50;3.30;;;1.80;;
52956;SDS011;38819;42.692;23.342;2023-08-08T07:27:16;1.77;;;1.55;;
52956;SDS011;38819;42.692;23.342;2023-08-08T07:29:41;2.22;;;1.92;;
52956;SDS011;38819;42.692;23.342;2023-08-08T07:32:07;2.70;;;1.80;;
52956;SDS011;38819;42.692;23.342;2023-08-08T07:34:32;1.63;;;1.52;;
52956;SDS011;38819;42.692;23.342;2023-08-08T07:36:58;6.07;;;1.52;;
52956;SDS011;38819;42.692;23.342;2023-08-08T07:39:24;2.70;;;1.35;;
52956;SDS011;38819;42.692;23.342;2023-08-08T07:41:50;1.45;;;1.35;;
52956;SDS011;38819;42.692;23.342;2023-08-08T07:44:16;4.03;;;1.63;;
52956;SDS011;38819;42.692;23.342;2023-08-08T07:46:41;2.97;;;1.00;;
52956;SDS011;38819;42.692;23.342;2023-08-08T07:49:07;3.22;;;1.20;;
52956;SDS011;38819;42.692;23.342;2023-08-08T07:51:34;1.10;;;1.10;;
52956;SDS011;38819;42.692;23.342;2023-08-08T07:54:00;3.67;;;1.27;;
52956;SDS011;38819;42.692;23.342;2023-08-08T07:56:25;1.90;;;1.00;;
52956;SDS011;38819;42.692;23.342;2023-08-08T07:58:51;1.10;;;0.98;;
52956;SDS011;38819;42.692;23.342;2023-08-08T08:01:17;3.10;;;1.25;;
52956;SDS011;38819;42.692;23.342;2023-08-08T08:03:43;1.95;;;0.90;;
52956;SDS011;38819;42.692;23.342;2023-08-08T08:06:09;1.60;;;1.08;;
52956;SDS011;38819;42.692;23.342;2023-08-08T08:08:34;3.17;;;1.25;;
52956;SDS011;38819;42.692;23.342;2023-08-08T08:11:01;1.13;;;1.00;;
52956;SDS011;38819;42.692;23.342;2023-08-08T08:13:27;4.07;;;1.60;;
52956;SDS011;38819;42.692;23.342;2023-08-08T08:15:52;1.23;;;1.15;;
52956;SDS011;38819;42.692;23.342;2023-08-08T08:18:18;1.38;;;1.20;;
52956;SDS011;38819;42.692;23.342;2023-08-08T08:20:44;8.43;;;2.53;;
52956;SDS011;38819;42.692;23.342;2023-08-08T08:23:10;1.60;;;1.50;;
52956;SDS011;38819;42.692;23.342;2023-08-08T08:25:35;1.42;;;1.30;;
52956;SDS011;38819;42.692;23.342;2023-08-08T08:28:01;1.33;;;1.23;;
52956;SDS011;38819;42.692;23.342;2023-08-08T08:30:26;2.38;;;1.10;;
52956;SDS011;38819;42.692;23.342;2023-08-08T08:32:52;4.30;;;1.30;;
52956;SDS011;38819;42.692;23.342;2023-08-08T08:35:18;1.38;;;1.27;;
52956;SDS011;38819;42.692;23.342;2023-08-08T08:37:44;1.60;;;1.50;;
52956;SDS011;38819;42.692;23.342;2023-08-08T08:40:09;2.58;;;1.08;;
52956;SDS011;38819;42.692;23.342;2023-08-08T08:42:35;4.45;;;1.23;;
52956;SDS011;38819;42.692;23.342;2023-08-08T08:45:04;2.10;;;1.60;;
52956;SDS011;38819;42.692;23.342;2023-08-08T08:47:30;3.92;;;1.65;;
52956;SDS011;38819;42.692;23.342;2023-08-08T08:49:57;1.60;;;1.50;;
52956;SDS011;38819;42.692;23.342;2023-08-08T08:52:23;3.45;;;2.22;;
52956;SDS011;38819;42.692;23.342;2023-08-08T08:54:50;4.68;;;2.38;;
52956;SDS011;38819;42.692;23.342;2023-08-08T08:57:16;1.58;;;1.40;;
52956;SDS011;38819;42.692;23.342;2023-08-08T08:59:41;3.97;;;1.88;;
52956;SDS011;38819;42.692;23.342;2023-08-08T09:02:07;6.68;;;1.60;;
52956;SDS011;38819;42.692;23.342;2023-08-08T09:04:33;1.45;;;1.35;;
52956;SDS011;38819;42.692;23.342;2023-08-08T09:06:59;1.60;;;1.50;;
52956;SDS011;38819;42.692;23.342;2023-08-08T09:09:25;2.58;;;1.45;;
52956;SDS011;38819;42.692;23.342;2023-08-08T09:11:52;3.35;;;1.10;;
52956;SDS011;38819;42.692;23.342;2023-08-08T09:14:21;1.50;;;1.30;;
52956;SDS011;38819;42.692;23.342;2023-08-08T09:16:48;1.77;;;1.40;;
52956;SDS011;38819;42.692;23.342;2023-08-08T09:19:15;1.98;;;1.63;;
52956;SDS011;38819;42.692;23.342;2023-08-08T09:21:42;2.00;;;1.90;;
52956;SDS011;38819;42.692;23.342;2023-08-08T09:24:08;2.20;;;1.92;;
52956;SDS011;38819;42.692;23.342;2023-08-08T09:26:33;3.35;;;1.60;;
52956;SDS011;38819;42.692;23.342;2023-08-08T09:29:02;1.58;;;1.50;;
52956;SDS011;38819;42.692;23.342;2023-08-08T09:31:28;3.83;;;1.40;;
52956;SDS011;38819;42.692;23.342;2023-08-08T09:33:56;3.17;;;1.20;;
52956;SDS011;38819;42.692;23.342;2023-08-08T09:36:23;2.08;;;0.98;;
52956;SDS011;38819;42.692;23.342;2023-08-08T09:38:49;2.00;;;1.20;;
52956;SDS011;38819;42.692;23.342;2023-08-08T09:41:14;1.50;;;1.40;;
52956;SDS011;38819;42.692;23.342;2023-08-08T09:43:42;2.35;;;2.03;;
52956;SDS011;38819;42.692;23.342;2023-08-08T09:46:09;1.42;;;1.00;;
52956;SDS011;38819;42.692;23.342;2023-08-08T09:48:35;4.00;;;1.23;;
52956;SDS011;38819;42.692;23.342;2023-08-08T09:51:03;6.03;;;2.38;;
52956;SDS011;38819;42.692;23.342;2023-08-08T09:53:29;1.63;;;1.50;;
52956;SDS011;38819;42.692;23.342;2023-08-08T09:55:55;1.85;;;1.17;;
52956;SDS011;38819;42.692;23.342;2023-08-08T09:58:22;2.40;;;1.50;;
52956;SDS011;38819;42.692;23.342;2023-08-08T10:00:51;2.65;;;1.55;;
52956;SDS011;38819;42.692;23.342;2023-08-08T10:03:17;2.97;;;1.35;;
52956;SDS011;38819;42.692;23.342;2023-08-08T10:05:43;1.30;;;1.20;;
52956;SDS011;38819;42.692;23.342;2023-08-08T10:08:09;1.17;;;1.15;;
52956;SDS011;38819;42.692;23.342;2023-08-08T10:10:36;1.95;;;1.85;;
52956;SDS011;38819;42.692;23.342;2023-08-08T10:13:02;1.75;;;1.65;;
52956;SDS011;38819;42.692;23.342;2023-08-08T10:15:29;1.50;;;1.40;;
52956;SDS011;38819;42.692;23.342;2023-08-08T10:17:57;1.42;;;1.40;;
52956;SDS011;38819;42.692;23.342;2023-08-08T10:20:24;1.50;;;1.40;;
52956;SDS011;38819;42.692;23.342;2023-08-08T10:22:51;1.75;;;1.65;;
52956;SDS011;38819;42.692;23.342;2023-08-08T10:25:18;1.48;;;1.40;;
52956;SDS011;38819;42.692;23.342;2023-08-08T10:28:13;2.05;;;1.75;;
52956;SDS011;38819;42.692;23.342;2023-08-08T10:30:45;1.50;;;1.40;;
52956;SDS011;38819;42.692;23.342;2023-08-08T10:35:58;1.25;;;1.20;;
52956;SDS011;38819;42.692;23.342;2023-08-08T10:38:43;1.95;;;1.25;;
52956;SDS011;38819;42.692;23.342;2023-08-08T10:41:19;4.03;;;1.90;;
52956;SDS011;38819;42.692;23.342;2023-08-08T10:46:22;1.50;;;1.40;;
52956;SDS011;38819;42.692;23.342;2023-08-08T10:48:57;2.70;;;1.27;;
52956;SDS011;38819;42.692;23.342;2023-08-08T10:51:37;1.73;;;1.42;;
52956;SDS011;38819;42.692;23.342;2023-08-08T10:54:03;1.40;;;1.30;;
52956;SDS011;38819;42.692;23.342;2023-08-08T10:56:32;1.20;;;1.13;;
52956;SDS011;38819;42.692;23.342;2023-08-08T10:58:59;1.55;;;1.10;;
52956;SDS011;38819;42.692;23.342;2023-08-08T11:01:25;1.88;;;1.77;;
52956;SDS011;38819;42.692;23.342;2023-08-08T11:03:50;1.20;;;1.20;;
52956;SDS011;38819;42.692;23.342;2023-08-08T11:06:17;2.03;;;1.27;;
52956;SDS011;38819;42.692;23.342;2023-08-08T11:08:44;3.10;;;1.23;;
52956;SDS011;38819;42.692;23.342;2023-08-08T11:11:09;1.08;;;1.08;;
52956;SDS011;38819;42.692;23.342;2023-08-08T11:13:35;1.60;;;0.80;;
52956;SDS011;38819;42.692;23.342;2023-08-08T11:16:00;1.88;;;1.77;;
52956;SDS011;38819;42.692;23.342;2023-08-08T11:18:29;6.28;;;2.17;;
52956;SDS011;38819;42.692;23.342;2023-08-08T11:20:54;1.70;;;1.30;;
52956;SDS011;38819;42.692;23.342;2023-08-08T11:23:20;3.72;;;0.85;;
52956;SDS011;38819;42.692;23.342;2023-08-08T11:25:45;3.65;;;1.38;;
52956;SDS011;38819;42.692;23.342;2023-08-08T11:28:12;1.70;;;1.00;;
52956;SDS011;38819;42.692;23.342;2023-08-08T11:30:39;2.55;;;1.10;;
52956;SDS011;38819;42.692;23.342;2023-08-08T11:33:07;1.77;;;1.40;;
52956;SDS011;38819;42.692;23.342;2023-08-08T11:35:32;1.20;;;1.10;;
52956;SDS011;38819;42.692;23.342;2023-08-08T11:38:01;1.80;;;1.17;;
52956;SDS011;38819;42.692;23.342;2023-08-08T11:40:29;2.45;;;1.25;;
52956;SDS011;38819;42.692;23.342;2023-08-08T11:42:55;1.02;;;0.90;;
52956;SDS011;38819;42.692;23.342;2023-08-08T11:45:24;1.15;;;1.05;;
52956;SDS011;38819;42.692;23.342;2023-08-08T11:47:50;1.10;;;1.10;;
52956;SDS011;38819;42.692;23.342;2023-08-08T11:50:18;2.53;;;1.25;;
52956;SDS011;38819;42.692;23.342;2023-08-08T11:52:45;1.13;;;1.02;;
52956;SDS011;38819;42.692;23.342;2023-08-08T11:55:11;1.50;;;1.30;;
52956;SDS011;38819;42.692;23.342;2023-08-08T11:57:38;1.65;;;1.40;;
52956;SDS011;38819;42.692;23.342;2023-08-08T12:00:08;1.00;;;0.90;;
52956;SDS011;38819;42.692;23.342;2023-08-08T12:02:42;3.17;;;1.05;;
52956;SDS011;38819;42.692;23.342;2023-08-08T12:05:09;0.93;;;0.68;;
52956;SDS011;38819;42.692;23.342;2023-08-08T12:07:36;8.07;;;2.05;;
52956;SDS011;38819;42.692;23.342;2023-08-08T12:10:03;1.35;;;0.98;;
52956;SDS011;38819;42.692;23.342;2023-08-08T12:12:33;1.25;;;0.90;;
52956;SDS011;38819;42.692;23.342;2023-08-08T12:15:03;1.10;;;1.00;;
52956;SDS011;38819;42.692;23.342;2023-08-08T12:17:31;0.95;;;0.80;;
52956;SDS011;38819;42.692;23.342;2023-08-08T12:20:00;3.75;;;1.08;;
52956;SDS011;38819;42.692;23.342;2023-08-08T12:22:26;1.00;;;1.00;;
52956;SDS011;38819;42.692;23.342;2023-08-08T12:24:51;1.15;;;1.05;;
52956;SDS011;38819;42.692;23.342;2023-08-08T12:27:16;1.58;;;0.80;;
52956;SDS011;38819;42.692;23.342;2023-08-08T12:29:42;5.03;;;1.30;;
52956;SDS011;38819;42.692;23.342;2023-08-08T12:32:08;1.73;;;1.23;;
52956;SDS011;38819;42.692;23.342;2023-08-08T12:34:34;0.70;;;0.70;;
52956;SDS011;38819;42.692;23.342;2023-08-08T12:37:00;0.80;;;0.80;;
52956;SDS011;38819;42.692;23.342;2023-08-08T12:39:25;0.98;;;0.98;;
52956;SDS011;38819;42.692;23.342;2023-08-08T12:41:51;1.85;;;0.93;;
52956;SDS011;38819;42.692;23.342;2023-08-08T12:44:16;1.10;;;1.10;;
52956;SDS011;38819;42.692;23.342;2023-08-08T12:46:42;3.58;;;1.23;;
52956;SDS011;38819;42.692;23.342;2023-08-08T12:49:07;1.40;;;1.20;;
52956;SDS011;38819;42.692;23.342;2023-08-08T12:51:33;2.58;;;1.15;;
52956;SDS011;38819;42.692;23.342;2023-08-08T12:53:58;3.08;;;1.52;;
52956;SDS011;38819;42.692;23.342;2023-08-08T12:56:24;2.03;;;1.17;;
52956;SDS011;38819;42.692;23.342;2023-08-08T12:58:49;2.17;;;1.13;;
52956;SDS011;38819;42.692;23.342;2023-08-08T13:01:15;3.22;;;0.80;;
52956;SDS011;38819;42.692;23.342;2023-08-08T13:03:40;0.70;;;0.70;;
52956;SDS011;38819;42.692;23.342;2023-08-08T13:06:06;2.63;;;1.00;;
52956;SDS011;38819;42.692;23.342;2023-08-08T13:08:31;1.13;;;1.02;;
52956;SDS011;38819;42.692;23.342;2023-08-08T13:10:57;2.63;;;1.15;;
52956;SDS011;38819;42.692;23.342;2023-08-08T13:13:23;0.90;;;0.90;;
52956;SDS011;38819;42.692;23.342;2023-08-08T13:15:50;0.95;;;0.82;;
52956;SDS011;38819;42.692;23.342;2023-08-08T13:18:16;1.15;;;0.85;;
52956;SDS011;38819;42.692;23.342;2023-08-08T13:20:41;0.80;;;0.80;;
52956;SDS011;38819;42.692;23.342;2023-08-08T13:23:07;0.80;;;0.80;;
52956;SDS011;38819;42.692;23.342;2023-08-08T13:25:33;1.20;;;1.00;;
52956;SDS011;38819;42.692;23.342;2023-08-08T13:27:59;4.00;;;0.93;;
52956;SDS011;38819;42.692;23.342;2023-08-08T13:30:26;2.05;;;1.25;;
52956;SDS011;38819;42.692;23.342;2023-08-08T13:32:52;2.05;;;1.30;;
52956;SDS011;38819;42.692;23.342;2023-08-08T13:35:17;1.15;;;0.98;;
52956;SDS011;38819;42.692;23.342;2023-08-08T13:37:42;2.15;;;1.27;;
52956;SDS011;38819;42.692;23.342;2023-08-08T13:40:08;4.18;;;1.10;;
52956;SDS011;38819;42.692;23.342;2023-08-08T13:42:34;0.80;;;0.80;;
52956;SDS011;38819;42.692;23.342;2023-08-08T13:44:59;5.75;;;0.82;;
52956;SDS011;38819;42.692;23.342;2023-08-08T13:47:24;1.60;;;0.98;;
52956;SDS011;38819;42.692;23.342;2023-08-08T13:49:50;1.80;;;0.93;;
52956;SDS011;38819;42.692;23.342;2023-08-08T13:52:17;1.08;;;0.90;;
52956;SDS011;38819;42.692;23.342;2023-08-08T13:54:42;2.65;;;0.98;;
52956;SDS011;38819;42.692;23.342;2023-08-08T13:57:08;1.27;;;1.17;;
52956;SDS011;38819;42.692;23.342;2023-08-08T13:59:33;2.40;;;0.90;;
52956;SDS011;38819;42.692;23.342;2023-08-08T14:01:58;2.97;;;1.30;;
52956;SDS011;38819;42.692;23.342;2023-08-08T14:04:24;8.32;;;1.27;;
52956;SDS011;38819;42.692;23.342;2023-08-08T14:06:49;1.60;;;1.50;;
52956;SDS011;38819;42.692;23.342;2023-08-08T14:09:15;1.10;;;1.00;;
52956;SDS011;38819;42.692;23.342;2023-08-08T14:11:40;2.97;;;1.15;;
52956;SDS011;38819;42.692;23.342;2023-08-08T14:14:05;2.10;;;1.00;;
52956;SDS011;38819;42.692;23.342;2023-08-08T14:16:31;4.40;;;1.40;;
52956;SDS011;38819;42.692;23.342;2023-08-08T14:18:57;1.42;;;1.23;;
52956;SDS011;38819;42.692;23.342;2023-08-08T14:21:22;1.40;;;1.20;;
52956;SDS011;38819;42.692;23.342;2023-08-08T14:23:48;1.75;;;1.00;;
52956;SDS011;38819;42.692;23.342;2023-08-08T14:26:13;1.58;;;1.38;;
52956;SDS011;38819;42.692;23.342;2023-08-08T14:28:39;0.80;;;0.80;;
52956;SDS011;38819;42.692;23.342;2023-08-08T14:31:04;0.70;;;0.70;;
52956;SDS011;38819;42.692;23.342;2023-08-08T14:33:31;0.80;;;0.80;;
52956;SDS011;38819;42.692;23.342;2023-08-08T14:35:57;1.13;;;0.90;;
52956;SDS011;38819;42.692;23.342;2023-08-08T14:38:23;2.63;;;1.23;;